Dashkhovuz, Turkmenistan

2:16 PM TMT on July 27, 2016 (GMT +0500)
Urgench | | Change Station

Elev 322 ft 41.58 °N, 60.64 °E | Updated 16 minutes ago

Clear
Clear
88 °F
Feels Like 88 °F
N
14
Wind Variable Wind from WNW

Today
High -- | Low -- °F
--% Chance of Precip.
Yesterday
High -- | Low -- °F
Precip. -- in
Pressure 29.71 in
Visibility -9999.0 miles
Clouds
Heat Index 88 °F
Dew Point 61 °F
Humidity 40%
Rainfall 0.00 in
Snow Depth Not available.
5:50 AM 8:23 PM
Last Quarter, 45% visible
METAR UTNU 270900Z 30012KT CAVOK 31/16 Q1006 R31/CLRD70 NOSIG
Pressure 29.71 in
Visibility -9999.0 miles
Clouds
Heat Index 88 °F
Dew Point 61 °F
Humidity 40%
Rainfall 0.00 in
Snow Depth Not available.
5:50 AM 8:23 PM
Last Quarter, 45% visible
METAR UTNU 270900Z 30012KT CAVOK 31/16 Q1006 R31/CLRD70 NOSIG

10-Day Weather Forecast

×

Almanac

Astronomy

Jul. 27, 2016 Rise Set
Actual Time
Civil Twilight
Nautical Twilight
Astronomical Twilight
Moon
Length of Visible Light
Length of Day
Tomorrow will be .
, % of the Moon is Illuminated

Today's Extremes

Country Highs Country Lows

Community

WunderPhotos

Upload Photos

1,927,818 photos uploaded!

WunderBlog® & News

Nearby

Air Quality

  Air Quality AQ Index Pollutant
Not available.

Snow Depth

Station Depth Elevation

Earthquake Activity

City Distance Mag. Time & Date
Minimum magnitude displayed is 2.5.

Coastal Water Temperatures

Place Temperature

Stations

Nearby Weather Stations

Station Location Temp. Windchill Dew Point Humidity Wind Precip. Elev Updated Type